Time;durP1;ratioP1;P1;durP2;ratioP2;P2;SDS_P1;SDS_P2;PMS_P1;PMS_P2;Temp;Humidity;BMP_temperature;BMP_pressure;BME280_temperature;BME280_humidity;BME280_pressure;Samples;Min_cycle;Max_cycle;Signal;HPM_P1;HPM_P2
2022/07/15 00:01:47;;;;;;;3.20;2.10;;;;;;;;;;5091961;28;20428;-80
2022/07/15 00:04:13;;;;;;;2.97;2.00;;;;;;;;;;5092107;28;20378;-80
2022/07/15 00:06:40;;;;;;;4.40;2.30;;;;;;;;;;5091942;28;20423;-80
2022/07/15 00:09:06;;;;;;;2.60;2.00;;;;;;;;;;5092058;28;20386;-80
2022/07/15 00:11:32;;;;;;;2.80;2.00;;;;;;;;;;5091894;28;20374;-80
2022/07/15 00:13:59;;;;;;;2.88;2.00;;;;;;;;;;5092634;28;20920;-80
2022/07/15 00:16:25;;;;;;;3.22;1.92;;;;;;;;;;5075411;28;20384;-80
2022/07/15 00:18:51;;;;;;;2.38;1.75;;;;;;;;;;5090313;28;20881;-80
2022/07/15 00:21:17;;;;;;;3.50;2.08;;;;;;;;;;5091991;28;20465;-80
2022/07/15 00:23:43;;;;;;;3.35;2.28;;;;;;;;;;5091857;28;20381;-80
2022/07/15 00:26:09;;;;;;;2.78;1.80;;;;;;;;;;5086635;28;20386;-80
2022/07/15 00:28:35;;;;;;;2.57;1.77;;;;;;;;;;5082794;28;20375;-80
2022/07/15 00:31:01;;;;;;;2.65;2.00;;;;;;;;;;5091967;28;20378;-80
2022/07/15 00:33:27;;;;;;;3.03;2.08;;;;;;;;;;5091680;28;20427;-80
2022/07/15 00:35:53;;;;;;;2.90;2.20;;;;;;;;;;5078028;28;20392;-81
2022/07/15 00:38:19;;;;;;;3.95;2.33;;;;;;;;;;5071561;28;20378;-80
2022/07/15 00:40:46;;;;;;;3.70;1.80;;;;;;;;;;5074935;28;21820;-80
2022/07/15 00:43:13;;;;;;;3.83;2.30;;;;;;;;;;5075194;28;20380;-80
2022/07/15 00:45:39;;;;;;;3.10;1.65;;;;;;;;;;5074905;28;20430;-80
2022/07/15 00:48:06;;;;;;;2.40;2.20;;;;;;;;;;5075065;28;20388;-80
2022/07/15 00:50:32;;;;;;;2.47;1.95;;;;;;;;;;5075081;28;20380;-80
2022/07/15 00:53:07;;;;;;;2.95;2.20;;;;;;;;;;5075132;28;20383;-80
2022/07/15 00:55:37;;;;;;;2.90;2.17;;;;;;;;;;5074767;28;20449;-80
2022/07/15 00:58:05;;;;;;;3.30;2.05;;;;;;;;;;5073557;28;20375;-80
2022/07/15 01:00:31;;;;;;;3.88;2.03;;;;;;;;;;5074748;28;20383;-80
2022/07/15 01:02:58;;;;;;;2.95;1.92;;;;;;;;;;5074733;28;20390;-80
2022/07/15 01:05:25;;;;;;;2.15;1.90;;;;;;;;;;5074590;28;20415;-80
2022/07/15 01:07:51;;;;;;;2.10;1.90;;;;;;;;;;5074769;28;20388;-80
2022/07/15 01:10:18;;;;;;;2.42;1.83;;;;;;;;;;5074716;28;20417;-80
2022/07/15 01:12:46;;;;;;;3.45;2.08;;;;;;;;;;5074611;28;20387;-80
2022/07/15 01:15:12;;;;;;;2.60;2.00;;;;;;;;;;5074347;28;20400;-80
2022/07/15 01:17:38;;;;;;;2.88;2.05;;;;;;;;;;5074647;28;20372;-80
2022/07/15 01:20:05;;;;;;;4.90;2.03;;;;;;;;;;5074358;28;20458;-81
2022/07/15 01:22:31;;;;;;;3.72;1.90;;;;;;;;;;5074410;28;20861;-80
2022/07/15 01:24:58;;;;;;;5.07;2.20;;;;;;;;;;5074284;28;20467;-80
2022/07/15 01:27:25;;;;;;;3.60;2.08;;;;;;;;;;5074264;28;20730;-80
2022/07/15 01:29:51;;;;;;;2.47;2.10;;;;;;;;;;5074212;28;20387;-80
2022/07/15 01:32:17;;;;;;;2.88;2.10;;;;;;;;;;5074166;28;20386;-80
2022/07/15 01:34:43;;;;;;;2.67;1.92;;;;;;;;;;5073943;28;20439;-80
2022/07/15 01:37:09;;;;;;;3.75;2.20;;;;;;;;;;5074042;28;20375;-80
2022/07/15 01:39:35;;;;;;;2.20;1.80;;;;;;;;;;5074053;28;20375;-80
2022/07/15 01:42:01;;;;;;;4.05;2.38;;;;;;;;;;5074011;28;20380;-80
2022/07/15 01:44:27;;;;;;;4.97;1.98;;;;;;;;;;5073839;28;20388;-80
2022/07/15 01:46:53;;;;;;;2.22;2.00;;;;;;;;;;5073852;28;20376;-80
2022/07/15 01:49:22;;;;;;;2.35;2.13;;;;;;;;;;5073339;28;20379;-80
2022/07/15 01:51:49;;;;;;;2.75;2.20;;;;;;;;;;5093118;28;20381;-80
2022/07/15 01:54:15;;;;;;;2.38;2.17;;;;;;;;;;5094168;28;20426;-80
2022/07/15 01:56:41;;;;;;;4.22;2.30;;;;;;;;;;5093869;28;20906;-80
2022/07/15 01:59:07;;;;;;;4.15;2.30;;;;;;;;;;5093906;28;20417;-80
2022/07/15 02:01:34;;;;;;;3.00;2.00;;;;;;;;;;5093774;28;20486;-81
2022/07/15 02:04:00;;;;;;;2.95;2.33;;;;;;;;;;5093664;28;20430;-80
2022/07/15 02:06:26;;;;;;;2.20;2.00;;;;;;;;;;5093812;28;20417;-81
2022/07/15 02:08:52;;;;;;;2.53;1.92;;;;;;;;;;5093699;28;20386;-80
2022/07/15 02:11:18;;;;;;;3.20;2.10;;;;;;;;;;5093711;28;20381;-80
2022/07/15 02:13:44;;;;;;;3.13;2.03;;;;;;;;;;5085743;28;20802;-80
2022/07/15 02:16:10;;;;;;;2.38;2.10;;;;;;;;;;5093617;28;20402;-80
2022/07/15 02:18:36;;;;;;;3.50;2.05;;;;;;;;;;5093444;28;20451;-81
2022/07/15 02:21:02;;;;;;;2.58;2.08;;;;;;;;;;5093430;28;20402;-80
2022/07/15 02:23:29;;;;;;;2.17;1.98;;;;;;;;;;5093566;28;20377;-80
2022/07/15 02:25:55;;;;;;;2.40;2.20;;;;;;;;;;5093413;28;20378;-80
2022/07/15 02:28:21;;;;;;;2.40;1.88;;;;;;;;;;5093307;28;20432;-80
2022/07/15 02:30:47;;;;;;;3.43;1.97;;;;;;;;;;5093185;28;20468;-80
2022/07/15 02:33:13;;;;;;;3.20;2.00;;;;;;;;;;5078748;28;20398;-80
2022/07/15 02:35:40;;;;;;;3.40;2.35;;;;;;;;;;5078089;28;20415;-80
2022/07/15 02:38:06;;;;;;;3.97;2.10;;;;;;;;;;5072937;28;20482;-80
2022/07/15 02:40:32;;;;;;;2.72;1.90;;;;;;;;;;5072821;28;20467;-80
2022/07/15 02:43:01;;;;;;;2.47;2.10;;;;;;;;;;5072811;28;20407;-80
2022/07/15 02:45:28;;;;;;;4.13;2.20;;;;;;;;;;5072674;28;20949;-80
2022/07/15 02:47:54;;;;;;;3.13;2.20;;;;;;;;;;5072566;28;20388;-80
2022/07/15 02:50:21;;;;;;;2.58;2.20;;;;;;;;;;5072702;28;20440;-80
2022/07/15 02:52:47;;;;;;;2.65;2.10;;;;;;;;;;5072843;28;20386;-80
2022/07/15 02:55:13;;;;;;;3.08;2.33;;;;;;;;;;5072374;28;20412;-80
2022/07/15 02:57:39;;;;;;;3.10;2.10;;;;;;;;;;5072598;28;20376;-80
2022/07/15 03:00:06;;;;;;;4.80;2.53;;;;;;;;;;5072524;28;20842;-80
2022/07/15 03:02:32;;;;;;;3.25;1.92;;;;;;;;;;5072518;28;20372;-80
2022/07/15 03:04:58;;;;;;;3.08;2.47;;;;;;;;;;5071314;28;20402;-80
2022/07/15 03:07:24;;;;;;;4.03;2.50;;;;;;;;;;5072480;28;20845;-80
2022/07/15 03:09:50;;;;;;;3.72;2.33;;;;;;;;;;5072375;28;20379;-80
2022/07/15 03:12:16;;;;;;;2.50;2.20;;;;;;;;;;5072463;28;20459;-80
2022/07/15 03:14:42;;;;;;;2.30;2.10;;;;;;;;;;5072521;28;20753;-80
2022/07/15 03:17:08;;;;;;;3.58;2.40;;;;;;;;;;5070944;28;20398;-80
2022/07/15 03:19:34;;;;;;;2.67;2.20;;;;;;;;;;5072639;28;20372;-80
2022/07/15 03:22:00;;;;;;;2.40;2.10;;;;;;;;;;5072126;28;20459;-80
2022/07/15 03:24:26;;;;;;;3.45;2.20;;;;;;;;;;5072163;28;20407;-80
2022/07/15 03:26:53;;;;;;;4.03;2.50;;;;;;;;;;5072203;28;20383;-80
2022/07/15 03:29:19;;;;;;;4.15;2.38;;;;;;;;;;5072571;28;20733;-80
2022/07/15 03:31:45;;;;;;;3.97;2.20;;;;;;;;;;5072388;28;20929;-80
2022/07/15 03:34:11;;;;;;;2.72;2.38;;;;;;;;;;5071801;28;20496;-80
2022/07/15 03:36:37;;;;;;;3.33;2.40;;;;;;;;;;5072109;28;20376;-80
2022/07/15 03:39:04;;;;;;;2.90;2.60;;;;;;;;;;5072123;28;20410;-80
2022/07/15 03:41:30;;;;;;;2.50;2.30;;;;;;;;;;5072372;28;20372;-80
2022/07/15 03:43:56;;;;;;;5.47;2.38;;;;;;;;;;5071905;28;20919;-80
2022/07/15 03:46:22;;;;;;;3.10;2.35;;;;;;;;;;5072134;28;20411;-80
2022/07/15 03:48:49;;;;;;;2.80;2.45;;;;;;;;;;5072215;28;20746;-80
2022/07/15 03:51:15;;;;;;;3.55;2.30;;;;;;;;;;5071971;28;20772;-80
2022/07/15 03:53:41;;;;;;;2.70;2.28;;;;;;;;;;5071817;28;20371;-80
2022/07/15 03:56:07;;;;;;;3.33;2.22;;;;;;;;;;5072222;28;20441;-80
2022/07/15 03:58:33;;;;;;;2.70;1.80;;;;;;;;;;5076920;28;20389;-80
2022/07/15 04:00:59;;;;;;;3.53;2.50;;;;;;;;;;5092070;28;20370;-80
2022/07/15 04:03:25;;;;;;;4.53;2.42;;;;;;;;;;5091837;28;20370;-80
2022/07/15 04:05:51;;;;;;;2.88;2.15;;;;;;;;;;5092335;28;20382;-80
2022/07/15 04:08:18;;;;;;;3.38;2.30;;;;;;;;;;5092037;28;20378;-80
2022/07/15 04:10:44;;;;;;;3.20;2.42;;;;;;;;;;5092004;28;20380;-80
2022/07/15 04:13:10;;;;;;;3.08;2.40;;;;;;;;;;5092000;28;20382;-80
2022/07/15 04:15:36;;;;;;;3.72;2.20;;;;;;;;;;5089306;28;20404;-80
2022/07/15 04:18:02;;;;;;;4.32;2.50;;;;;;;;;;5087366;28;20885;-80
2022/07/15 04:20:28;;;;;;;3.08;2.50;;;;;;;;;;5095779;28;20382;-80
2022/07/15 04:22:54;;;;;;;4.63;2.47;;;;;;;;;;5095835;28;20374;-80
2022/07/15 04:25:21;;;;;;;4.87;2.53;;;;;;;;;;5095610;28;20859;-80
2022/07/15 04:27:48;;;;;;;4.22;2.60;;;;;;;;;;5095715;28;20409;-80
2022/07/15 04:30:14;;;;;;;3.17;2.65;;;;;;;;;;5095537;28;20777;-80
2022/07/15 04:32:40;;;;;;;2.40;2.10;;;;;;;;;;5095790;28;20401;-80
2022/07/15 04:35:06;;;;;;;4.38;2.60;;;;;;;;;;5087867;28;20495;-80
2022/07/15 04:37:32;;;;;;;2.53;2.13;;;;;;;;;;5073961;28;20383;-80
2022/07/15 04:39:58;;;;;;;2.55;2.03;;;;;;;;;;5075460;28;20387;-80
2022/07/15 04:42:24;;;;;;;2.70;2.20;;;;;;;;;;5075117;28;20890;-80
2022/07/15 04:44:51;;;;;;;3.75;2.47;;;;;;;;;;5075175;28;20398;-80
2022/07/15 04:47:17;;;;;;;3.83;2.25;;;;;;;;;;5075037;28;20379;-80
2022/07/15 04:52:35;;;;;;;3.40;2.20;;;;;;;;;;5058837;28;20384;-80
2022/07/15 04:55:02;;;;;;;3.57;2.27;;;;;;;;;;5063684;28;20409;-80
2022/07/15 04:57:28;;;;;;;2.40;2.20;;;;;;;;;;5058890;28;20413;-80
2022/07/15 04:59:54;;;;;;;4.85;2.33;;;;;;;;;;5059175;28;20423;-80
2022/07/15 05:02:20;;;;;;;3.67;2.17;;;;;;;;;;5072887;28;20861;-80
2022/07/15 05:04:47;;;;;;;2.33;1.92;;;;;;;;;;5073577;28;20380;-80
2022/07/15 05:07:13;;;;;;;2.80;2.08;;;;;;;;;;5074700;28;20412;-80
2022/07/15 05:09:39;;;;;;;4.10;2.23;;;;;;;;;;5074753;28;20448;-80
2022/07/15 05:12:05;;;;;;;4.53;2.10;;;;;;;;;;5074557;28;20380;-80
2022/07/15 05:14:31;;;;;;;2.97;2.10;;;;;;;;;;5073094;28;20978;-80
2022/07/15 05:16:57;;;;;;;3.03;1.98;;;;;;;;;;5071804;28;20868;-80
2022/07/15 05:19:23;;;;;;;3.53;2.00;;;;;;;;;;5073645;28;20461;-80
2022/07/15 05:21:49;;;;;;;3.90;2.17;;;;;;;;;;5073845;28;20372;-81
2022/07/15 05:24:15;;;;;;;3.08;1.95;;;;;;;;;;5073283;28;20481;-81
2022/07/15 05:26:41;;;;;;;3.75;2.35;;;;;;;;;;5072526;28;20792;-81
2022/07/15 05:29:07;;;;;;;2.50;2.00;;;;;;;;;;5074079;28;20388;-80
2022/07/15 05:31:33;;;;;;;2.90;2.03;;;;;;;;;;5072219;28;20410;-79
2022/07/15 05:33:59;;;;;;;2.90;1.90;;;;;;;;;;5072452;28;20415;-80
2022/07/15 05:36:25;;;;;;;3.30;2.07;;;;;;;;;;5071901;28;20380;-80
2022/07/15 05:38:52;;;;;;;4.95;2.10;;;;;;;;;;5057215;28;20376;-80
2022/07/15 05:41:18;;;;;;;3.33;2.10;;;;;;;;;;5055411;28;21888;-80
2022/07/15 05:43:44;;;;;;;3.30;2.15;;;;;;;;;;5067336;28;20433;-80
2022/07/15 05:46:12;;;;;;;3.65;2.10;;;;;;;;;;5073834;28;20780;-81
2022/07/15 05:48:39;;;;;;;3.05;2.20;;;;;;;;;;5073371;28;20403;-80
2022/07/15 05:51:05;;;;;;;3.43;2.00;;;;;;;;;;5073963;28;20383;-79
2022/07/15 05:53:31;;;;;;;3.63;2.22;;;;;;;;;;5073589;28;20466;-80
2022/07/15 05:55:57;;;;;;;4.45;2.10;;;;;;;;;;5073923;28;20379;-80
2022/07/15 05:58:23;;;;;;;3.60;1.97;;;;;;;;;;5073657;28;20388;-79
2022/07/15 06:00:50;;;;;;;2.75;1.88;;;;;;;;;;5068644;28;20510;-79
2022/07/15 06:03:16;;;;;;;3.55;2.00;;;;;;;;;;5058292;28;20382;-79
2022/07/15 06:05:43;;;;;;;2.13;1.70;;;;;;;;;;5063959;28;20391;-80
2022/07/15 06:08:10;;;;;;;3.60;1.95;;;;;;;;;;5068708;28;20376;-79
2022/07/15 06:10:36;;;;;;;5.15;2.03;;;;;;;;;;5063147;28;20434;-80
2022/07/15 06:13:02;;;;;;;3.28;1.70;;;;;;;;;;5073431;28;20376;-80
2022/07/15 06:15:28;;;;;;;3.30;2.00;;;;;;;;;;5073174;28;20399;-80
2022/07/15 06:17:54;;;;;;;5.70;2.00;;;;;;;;;;5069426;28;20383;-80
2022/07/15 06:20:21;;;;;;;2.97;2.00;;;;;;;;;;5071102;28;20554;-80
2022/07/15 06:22:47;;;;;;;4.57;2.30;;;;;;;;;;5073292;28;20368;-80
2022/07/15 06:25:13;;;;;;;4.45;4.05;;;;;;;;;;5073013;28;20390;-80
2022/07/15 06:27:39;;;;;;;4.13;2.67;;;;;;;;;;5073109;28;20391;-80
2022/07/15 06:30:05;;;;;;;3.10;2.25;;;;;;;;;;5063344;28;20817;-80
2022/07/15 06:32:31;;;;;;;4.47;2.15;;;;;;;;;;5071980;28;20380;-80
2022/07/15 06:34:57;;;;;;;2.90;2.08;;;;;;;;;;5072548;28;20938;-80
2022/07/15 06:37:23;;;;;;;5.78;2.28;;;;;;;;;;5072639;28;20380;-80
2022/07/15 06:39:50;;;;;;;4.18;2.40;;;;;;;;;;5073045;28;20368;-80
2022/07/15 06:42:16;;;;;;;4.95;2.15;;;;;;;;;;5072787;28;20410;-80
2022/07/15 06:44:42;;;;;;;4.28;2.17;;;;;;;;;;5071735;28;20471;-80
2022/07/15 06:47:08;;;;;;;6.68;2.30;;;;;;;;;;5072810;28;20858;-80
2022/07/15 06:49:34;;;;;;;4.50;2.13;;;;;;;;;;5072603;28;20386;-80
2022/07/15 06:52:01;;;;;;;4.85;2.08;;;;;;;;;;5072637;28;20372;-80
2022/07/15 06:54:27;;;;;;;3.15;2.13;;;;;;;;;;5072468;28;20469;-80
2022/07/15 06:56:53;;;;;;;3.03;2.00;;;;;;;;;;5072545;28;20447;-80
2022/07/15 06:59:20;;;;;;;2.70;1.83;;;;;;;;;;5072567;28;20403;-80
2022/07/15 07:01:46;;;;;;;3.78;1.77;;;;;;;;;;5072545;28;20457;-80
2022/07/15 07:04:13;;;;;;;3.17;1.75;;;;;;;;;;5073140;28;20386;-80
2022/07/15 07:06:39;;;;;;;3.45;1.92;;;;;;;;;;5072457;28;20379;-80
2022/07/15 07:09:05;;;;;;;3.80;1.90;;;;;;;;;;5073158;28;20865;-80
2022/07/15 07:11:32;;;;;;;4.68;1.80;;;;;;;;;;5072471;28;20411;-80
2022/07/15 07:14:02;;;;;;;3.50;1.63;;;;;;;;;;5072977;28;20851;-80
2022/07/15 07:16:28;;;;;;;3.67;1.70;;;;;;;;;;5072348;28;20383;-80
2022/07/15 07:18:54;;;;;;;3.75;1.92;;;;;;;;;;5072317;28;20450;-80
2022/07/15 07:21:20;;;;;;;5.25;1.70;;;;;;;;;;5072261;28;20925;-80
2022/07/15 07:23:46;;;;;;;3.78;1.70;;;;;;;;;;5072108;28;20387;-80
2022/07/15 07:26:13;;;;;;;4.60;1.73;;;;;;;;;;5072294;28;20376;-80
2022/07/15 07:28:40;;;;;;;3.25;1.90;;;;;;;;;;5072133;28;20388;-80
2022/07/15 07:31:09;;;;;;;5.93;1.73;;;;;;;;;;5072308;28;20379;-80
2022/07/15 07:33:36;;;;;;;3.53;2.30;;;;;;;;;;5071127;28;20380;-80
2022/07/15 07:36:03;;;;;;;2.55;1.83;;;;;;;;;;5071893;28;20896;-80
2022/07/15 07:38:29;;;;;;;4.65;2.00;;;;;;;;;;5072136;28;20376;-80
2022/07/15 07:40:55;;;;;;;2.78;1.70;;;;;;;;;;5072171;28;20414;-80
2022/07/15 07:43:21;;;;;;;3.07;1.70;;;;;;;;;;5072111;28;20401;-80
2022/07/15 07:45:48;;;;;;;2.83;1.77;;;;;;;;;;5074082;28;20380;-80
2022/07/15 07:48:14;;;;;;;5.05;1.80;;;;;;;;;;5088553;28;20378;-80
2022/07/15 07:50:42;;;;;;;2.40;1.63;;;;;;;;;;5096239;28;20393;-80
2022/07/15 07:53:08;;;;;;;2.50;1.63;;;;;;;;;;5096366;28;20392;-80
2022/07/15 07:55:34;;;;;;;3.13;1.63;;;;;;;;;;5096216;28;20493;-80
2022/07/15 07:58:01;;;;;;;3.23;1.90;;;;;;;;;;5096352;28;20434;-80
2022/07/15 08:00:27;;;;;;;4.25;1.60;;;;;;;;;;5096449;28;20855;-80
2022/07/15 08:02:54;;;;;;;2.88;1.60;;;;;;;;;;5086512;28;20380;-80
2022/07/15 08:05:20;;;;;;;3.35;1.65;;;;;;;;;;5095440;28;20378;-80
2022/07/15 08:07:47;;;;;;;2.75;1.52;;;;;;;;;;5096125;28;20885;-80
2022/07/15 08:10:14;;;;;;;3.78;1.98;;;;;;;;;;5094504;28;20393;-80
2022/07/15 08:12:40;;;;;;;4.53;1.73;;;;;;;;;;5084459;28;20386;-80
2022/07/15 08:15:07;;;;;;;2.83;1.63;;;;;;;;;;5095767;28;20879;-80
2022/07/15 08:17:33;;;;;;;3.10;1.70;;;;;;;;;;5095999;28;20385;-80
2022/07/15 08:19:59;;;;;;;3.67;1.67;;;;;;;;;;5095866;28;20413;-80
2022/07/15 08:22:25;;;;;;;3.50;1.70;;;;;;;;;;5095715;28;20804;-80
2022/07/15 08:24:51;;;;;;;3.58;2.17;;;;;;;;;;5095699;28;20460;-80
2022/07/15 08:27:18;;;;;;;5.03;1.77;;;;;;;;;;5095669;28;20933;-80
2022/07/15 08:29:44;;;;;;;7.40;1.98;;;;;;;;;;5095018;28;20863;-80
2022/07/15 08:32:10;;;;;;;2.17;1.70;;;;;;;;;;5095537;28;20435;-80
2022/07/15 08:34:36;;;;;;;3.53;1.75;;;;;;;;;;5092569;28;20401;-80
2022/07/15 08:37:02;;;;;;;5.22;1.80;;;;;;;;;;5072361;28;20707;-80
2022/07/15 08:39:28;;;;;;;5.85;1.90;;;;;;;;;;5075299;28;20877;-80
2022/07/15 08:41:54;;;;;;;4.22;2.15;;;;;;;;;;5073862;28;20729;-80
2022/07/15 08:44:20;;;;;;;4.95;2.00;;;;;;;;;;5075034;28;20466;-81
2022/07/15 08:46:47;;;;;;;3.95;1.90;;;;;;;;;;5075248;28;20820;-81
2022/07/15 08:49:14;;;;;;;4.72;1.92;;;;;;;;;;5075026;28;20463;-80
2022/07/15 08:51:42;;;;;;;3.25;1.90;;;;;;;;;;5075003;28;20386;-81
2022/07/15 08:54:08;;;;;;;6.25;2.00;;;;;;;;;;5075695;28;20893;-80
2022/07/15 08:56:35;;;;;;;4.97;2.05;;;;;;;;;;5075142;28;20379;-80
2022/07/15 08:59:02;;;;;;;4.10;1.80;;;;;;;;;;5074945;28;20404;-80
2022/07/15 09:01:29;;;;;;;5.72;2.10;;;;;;;;;;5074556;28;20376;-81
2022/07/15 09:03:55;;;;;;;5.20;1.73;;;;;;;;;;5074804;28;20437;-81
2022/07/15 09:06:38;;;;;;;3.28;1.70;;;;;;;;;;5074847;28;20466;-81
2022/07/15 09:09:24;;;;;;;3.28;2.00;;;;;;;;;;5074627;28;20880;-81
2022/07/15 09:11:54;;;;;;;4.70;2.00;;;;;;;;;;5074572;28;20376;-81
2022/07/15 09:14:22;;;;;;;3.03;2.13;;;;;;;;;;5073239;28;20410;-81
2022/07/15 09:16:48;;;;;;;3.20;1.67;;;;;;;;;;5074497;28;20467;-81
2022/07/15 09:19:14;;;;;;;21.08;2.50;;;;;;;;;;5074521;28;20458;-81
2022/07/15 09:21:42;;;;;;;6.13;2.00;;;;;;;;;;5074593;28;20461;-81
2022/07/15 09:24:18;;;;;;;9.18;2.25;;;;;;;;;;5074327;28;20415;-81
2022/07/15 09:26:44;;;;;;;5.90;1.90;;;;;;;;;;5074352;28;20506;-80
2022/07/15 09:36:01;;;;;;;2.30;1.70;;;;;;;;;;5090283;28;20493;-81
2022/07/15 09:37:58;;;;;;;4.72;1.88;;;;;;;;;;5074165;28;20372;-81
2022/07/15 09:40:24;;;;;;;5.68;2.00;;;;;;;;;;5074110;28;20734;-81
2022/07/15 09:43:03;;;;;;;2.53;1.83;;;;;;;;;;5074148;28;20414;-81
2022/07/15 09:45:29;;;;;;;3.28;1.90;;;;;;;;;;5073656;28;20872;-81
2022/07/15 09:48:08;;;;;;;3.45;1.92;;;;;;;;;;5093947;28;20458;-81
2022/07/15 09:50:35;;;;;;;4.03;2.10;;;;;;;;;;5094068;28;20473;-81
2022/07/15 09:53:04;;;;;;;2.60;1.80;;;;;;;;;;5093968;28;20409;-81
2022/07/15 09:55:30;;;;;;;5.82;1.92;;;;;;;;;;5093911;28;20406;-81
2022/07/15 09:57:59;;;;;;;4.20;2.15;;;;;;;;;;5093864;28;20403;-81
2022/07/15 10:00:25;;;;;;;3.17;1.90;;;;;;;;;;5093957;28;20366;-81
2022/07/15 10:02:51;;;;;;;4.70;2.10;;;;;;;;;;5093833;28;20397;-81
2022/07/15 10:05:17;;;;;;;3.97;2.17;;;;;;;;;;5087613;28;20380;-81
2022/07/15 10:07:44;;;;;;;4.10;2.10;;;;;;;;;;5084580;28;20378;-81
2022/07/15 10:10:10;;;;;;;4.97;2.10;;;;;;;;;;5093676;28;20877;-81
2022/07/15 10:12:55;;;;;;;4.22;2.00;;;;;;;;;;5092154;28;20379;-81
2022/07/15 10:15:29;;;;;;;3.28;1.90;;;;;;;;;;5086576;28;20879;-81
2022/07/15 10:18:00;;;;;;;4.85;2.33;;;;;;;;;;5093820;28;20418;-81
2022/07/15 10:20:26;;;;;;;3.97;2.17;;;;;;;;;;5093813;28;20373;-81
2022/07/15 10:22:56;;;;;;;4.93;2.10;;;;;;;;;;5093616;28;20454;-81
2022/07/15 10:25:41;;;;;;;3.20;2.37;;;;;;;;;;5093373;28;20389;-81
2022/07/15 10:28:15;;;;;;;3.75;2.22;;;;;;;;;;5093458;28;20854;-81
2022/07/15 10:30:43;;;;;;;4.27;2.10;;;;;;;;;;5079933;28;20374;-81
2022/07/15 10:33:13;;;;;;;4.50;2.10;;;;;;;;;;5093603;28;20382;-81
2022/07/15 10:35:43;;;;;;;2.60;2.03;;;;;;;;;;5081485;28;20426;-81
2022/07/15 10:38:18;;;;;;;3.33;2.08;;;;;;;;;;5073477;28;20453;-81
2022/07/15 10:41:03;;;;;;;2.17;1.95;;;;;;;;;;5072913;28;20528;-81
2022/07/15 10:43:46;;;;;;;3.13;2.20;;;;;;;;;;5071495;28;20468;-81
2022/07/15 10:46:18;;;;;;;3.33;2.10;;;;;;;;;;5072823;28;20380;-81
2022/07/15 10:48:45;;;;;;;6.43;2.15;;;;;;;;;;5072816;28;20382;-81
2022/07/15 10:51:12;;;;;;;2.97;1.90;;;;;;;;;;5072609;28;20383;-81
2022/07/15 10:53:47;;;;;;;4.57;2.30;;;;;;;;;;5072673;28;20372;-81
2022/07/15 10:56:30;;;;;;;2.50;1.90;;;;;;;;;;5072562;28;20395;-81
2022/07/15 10:59:11;;;;;;;2.75;1.90;;;;;;;;;;5072931;28;20364;-81
2022/07/15 11:01:40;;;;;;;2.80;2.10;;;;;;;;;;5072839;28;20374;-81
2022/07/15 11:04:12;;;;;;;3.15;2.17;;;;;;;;;;5072440;28;20394;-81
2022/07/15 11:06:57;;;;;;;5.18;2.15;;;;;;;;;;5072715;28;20391;-81
2022/07/15 11:09:42;;;;;;;2.70;2.15;;;;;;;;;;5072614;28;20898;-81
2022/07/15 11:12:08;;;;;;;4.23;2.10;;;;;;;;;;5072390;28;20926;-81
2022/07/15 11:14:46;;;;;;;3.77;2.27;;;;;;;;;;5072389;28;20446;-81
2022/07/15 11:17:13;;;;;;;3.40;2.10;;;;;;;;;;5072502;28;20399;-81
2022/07/15 11:19:39;;;;;;;3.63;1.80;;;;;;;;;;5072327;28;20861;-81
2022/07/15 11:22:08;;;;;;;4.80;2.20;;;;;;;;;;5072176;28;20433;-81
2022/07/15 11:24:37;;;;;;;2.78;2.10;;;;;;;;;;5071302;28;20517;-81
2022/07/15 11:27:03;;;;;;;3.70;2.28;;;;;;;;;;5072286;28;20411;-81
2022/07/15 11:29:46;;;;;;;4.70;2.00;;;;;;;;;;5072431;28;20837;-81
2022/07/15 11:32:13;;;;;;;8.20;4.03;;;;;;;;;;5072094;28;20384;-81
2022/07/15 11:34:44;;;;;;;3.63;2.43;;;;;;;;;;5071938;28;20408;-81
2022/07/15 11:37:10;;;;;;;4.18;2.33;;;;;;;;;;5072107;28;20384;-81
2022/07/15 11:39:37;;;;;;;3.60;2.10;;;;;;;;;;5072352;28;20372;-81
2022/07/15 11:44:53;;;;;;;3.67;1.85;;;;;;;;;;5052510;28;20384;-81
2022/07/15 11:47:19;;;;;;;3.03;1.80;;;;;;;;;;5072047;28;20482;-81
2022/07/15 11:49:45;;;;;;;6.90;2.40;;;;;;;;;;5071909;28;20391;-81
2022/07/15 11:52:21;;;;;;;3.08;2.30;;;;;;;;;;5072032;28;20383;-81
2022/07/15 11:54:47;;;;;;;3.88;2.20;;;;;;;;;;5072075;28;20457;-81
2022/07/15 11:57:14;;;;;;;3.13;2.00;;;;;;;;;;5071967;28;20374;-81
2022/07/15 11:59:40;;;;;;;5.93;2.85;;;;;;;;;;5071825;28;20398;-81
2022/07/15 12:02:11;;;;;;;4.60;2.57;;;;;;;;;;5071899;28;20378;-81
2022/07/15 12:04:38;;;;;;;4.68;2.30;;;;;;;;;;5071349;28;20380;-81
2022/07/15 12:07:05;;;;;;;4.80;2.22;;;;;;;;;;5091567;28;20926;-81
2022/07/15 12:09:40;;;;;;;3.88;2.30;;;;;;;;;;5092034;28;20447;-81
2022/07/15 12:12:07;;;;;;;3.38;2.30;;;;;;;;;;5091914;28;20374;-81
2022/07/15 12:14:33;;;;;;;4.95;2.53;;;;;;;;;;5091975;28;20447;-81
2022/07/15 12:16:59;;;;;;;3.20;2.33;;;;;;;;;;5087829;28;20473;-81
2022/07/15 12:19:26;;;;;;;4.25;2.30;;;;;;;;;;5080834;28;20443;-81
2022/07/15 12:21:54;;;;;;;3.33;2.30;;;;;;;;;;5085880;28;20371;-82
2022/07/15 12:24:21;;;;;;;5.07;2.97;;;;;;;;;;5079390;28;20413;-81
2022/07/15 12:26:50;;;;;;;5.57;2.90;;;;;;;;;;5091861;28;20454;-80
2022/07/15 12:29:17;;;;;;;4.43;3.00;;;;;;;;;;5091889;28;20378;-81
2022/07/15 12:31:43;;;;;;;4.20;3.23;;;;;;;;;;5090772;28;20394;-81
2022/07/15 12:34:10;;;;;;;4.97;3.20;;;;;;;;;;5091669;28;20397;-81
2022/07/15 12:36:38;;;;;;;5.78;3.40;;;;;;;;;;5075566;28;20394;-80
2022/07/15 12:39:18;;;;;;;5.15;2.83;;;;;;;;;;5075238;28;20936;-81
2022/07/15 12:41:46;;;;;;;3.28;2.47;;;;;;;;;;5075531;28;20414;-81
2022/07/15 12:44:13;;;;;;;4.10;2.50;;;;;;;;;;5075026;28;20379;-81
2022/07/15 12:46:52;;;;;;;3.53;2.50;;;;;;;;;;5075038;28;20379;-81
2022/07/15 12:49:37;;;;;;;4.00;2.28;;;;;;;;;;5074897;28;20387;-81
2022/07/15 12:52:12;;;;;;;5.18;3.33;;;;;;;;;;5073705;28;20438;-81
2022/07/15 12:54:38;;;;;;;3.70;2.85;;;;;;;;;;5075074;28;20442;-81
2022/07/15 12:57:04;;;;;;;2.70;2.30;;;;;;;;;;5074899;28;20376;-81
2022/07/15 12:59:30;;;;;;;4.20;2.70;;;;;;;;;;5075169;28;20447;-81
2022/07/15 13:02:06;;;;;;;4.83;2.80;;;;;;;;;;5074804;28;20403;-81
2022/07/15 13:04:31;;;;;;;4.65;2.97;;;;;;;;;;5074547;28;20376;-81
2022/07/15 13:06:57;;;;;;;3.10;2.38;;;;;;;;;;5074744;28;20470;-81
2022/07/15 13:09:23;;;;;;;4.90;2.70;;;;;;;;;;5074767;28;20749;-81
2022/07/15 13:12:00;;;;;;;4.70;2.80;;;;;;;;;;5074606;28;20437;-81
2022/07/15 13:14:26;;;;;;;5.05;2.55;;;;;;;;;;5074421;28;20400;-81
2022/07/15 13:16:52;;;;;;;3.90;2.50;;;;;;;;;;5074520;28;20380;-81
2022/07/15 13:19:18;;;;;;;4.88;2.50;;;;;;;;;;5074523;28;20426;-81
2022/07/15 13:21:44;;;;;;;5.47;2.55;;;;;;;;;;5074448;28;20380;-82
2022/07/15 13:24:10;;;;;;;2.65;2.15;;;;;;;;;;5074357;28;20944;-81
2022/07/15 13:26:36;;;;;;;4.57;2.10;;;;;;;;;;5074385;28;20376;-81
2022/07/15 13:29:02;;;;;;;4.25;2.10;;;;;;;;;;5074241;28;20384;-81
2022/07/15 13:31:28;;;;;;;5.38;2.35;;;;;;;;;;5074251;28;20388;-81
2022/07/15 13:33:54;;;;;;;4.75;2.28;;;;;;;;;;5073928;28;20384;-81
2022/07/15 13:36:21;;;;;;;3.47;2.40;;;;;;;;;;5074188;28;20380;-81
2022/07/15 13:38:47;;;;;;;3.30;2.57;;;;;;;;;;5074099;28;20438;-81
2022/07/15 13:41:13;;;;;;;4.07;2.90;;;;;;;;;;5073113;28;20501;-80
2022/07/15 13:43:39;;;;;;;3.42;2.80;;;;;;;;;;5073997;28;20395;-81
2022/07/15 13:46:05;;;;;;;3.88;2.75;;;;;;;;;;5073525;28;20380;-81
2022/07/15 13:48:31;;;;;;;6.82;2.70;;;;;;;;;;5073433;28;20388;-81
2022/07/15 13:53:42;;;;;;;2.45;2.25;;;;;;;;;;5074396;28;20503;-81
2022/07/15 13:56:08;;;;;;;2.72;2.42;;;;;;;;;;5073815;28;20422;-81
2022/07/15 13:58:34;;;;;;;2.80;2.55;;;;;;;;;;5077809;28;20763;-81
2022/07/15 14:01:00;;;;;;;4.70;2.45;;;;;;;;;;5093894;28;20381;-81
2022/07/15 14:03:26;;;;;;;2.60;2.40;;;;;;;;;;5093786;28;20460;-80
2022/07/15 14:05:52;;;;;;;3.53;2.35;;;;;;;;;;5093849;28;20465;-81
2022/07/15 14:08:18;;;;;;;2.70;2.20;;;;;;;;;;5093712;28;20374;-81
2022/07/15 14:10:44;;;;;;;3.17;2.45;;;;;;;;;;5092654;28;20380;-81
2022/07/15 14:13:10;;;;;;;5.50;2.53;;;;;;;;;;5085876;28;20370;-80
2022/07/15 14:15:36;;;;;;;3.08;2.20;;;;;;;;;;5093501;28;20433;-81
2022/07/15 14:18:02;;;;;;;4.72;2.70;;;;;;;;;;5093654;28;20402;-81
2022/07/15 14:20:28;;;;;;;3.40;2.40;;;;;;;;;;5093492;28;20386;-81
2022/07/15 14:22:55;;;;;;;7.60;2.78;;;;;;;;;;5093498;28;20386;-81
2022/07/15 14:25:21;;;;;;;10.65;3.20;;;;;;;;;;5093331;28;20393;-81
2022/07/15 14:27:47;;;;;;;4.35;2.40;;;;;;;;;;5093525;28;20405;-81
2022/07/15 14:30:15;;;;;;;4.07;2.45;;;;;;;;;;5073415;28;20412;-81
2022/07/15 14:32:41;;;;;;;5.20;2.87;;;;;;;;;;5059387;28;20383;-81
2022/07/15 14:35:08;;;;;;;3.80;2.70;;;;;;;;;;5072707;28;20774;-81
2022/07/15 14:37:34;;;;;;;3.25;2.35;;;;;;;;;;5072985;28;20384;-81
2022/07/15 14:40:00;;;;;;;3.90;2.30;;;;;;;;;;5072979;28;20387;-81
2022/07/15 14:42:26;;;;;;;3.00;2.10;;;;;;;;;;5072811;28;20367;-80
2022/07/15 14:44:52;;;;;;;4.07;2.50;;;;;;;;;;5072808;28;20397;-81
2022/07/15 14:47:18;;;;;;;3.35;2.20;;;;;;;;;;5071386;28;20859;-80
2022/07/15 14:49:44;;;;;;;3.15;2.15;;;;;;;;;;5071435;28;20420;-80
2022/07/15 14:52:10;;;;;;;3.17;2.22;;;;;;;;;;5072770;28;20387;-80
2022/07/15 14:54:36;;;;;;;2.70;2.30;;;;;;;;;;5072647;28;20403;-80
2022/07/15 14:57:02;;;;;;;2.40;2.10;;;;;;;;;;5072695;28;20421;-80
2022/07/15 14:59:28;;;;;;;3.30;2.40;;;;;;;;;;5072527;28;20380;-80